Impacts TAF Board
For situational awareness. Not to be used for flight planning purposes.
IDs:

KSFB - Sanford Intl, FL, US

Issued at 0526 UTC 22 Oct 2021
Updated at 0614 UTC 22 Oct 2021
Potential Impact None Slight Moderate High
Time<<22/19Z 22/20Z 22/21Z 22/22Z 22/23Z 23/00Z 23/01Z 23/02Z 23/03Z 23/04Z 23/05Z 23/06Z 23/07Z>>
Type PRVL PRVL PRVL PRVL PRVL PRVL PRVL PRVL PRVL PRVL PRVL
VIS >6 >6 >6 >6 >6 >6 >6 >6 >6 >6 >6
CIG -- -- -- -- -- -- -- -- -- -- --
Cover SCT SCT SCT SCT SCT SCT SCT SCT SCT SCT SCT
FltCat VFR VFR VFR VFR VFR VFR VFR VFR VFR VFR VFR
WX -- -- -- -- -- -- -- -- -- -- --
WDir 100 100 100 100 100 100 110 110 110 110 110
WSpd 5 5 5 5 5 5 4 4 4 4 4
WGst -- -- -- -- -- -- -- -- -- -- --
Raw TAF
KSFB 220526Z 2206/2306 00000KT P6SM FEW250
  FM221500 VRB04KT P6SM SCT035 SCT250
  FM221900 10005KT P6SM SCT040 SCT200
  FM230100 11004KT P6SM SCT040 SCT120 SCT250


METAR Board
Radar Display
Forecast Discussion
For situational awareness. Not to be used for flight planning purposes.